NCAR-RAP Real-Time Weather Data

Output produced by METARs form (08 May 2021  02:08 UTC)
found at http://weather.rap.ucar.edu/surface/
 
KAIA 080153Z AUTO 15017KT 10SM FEW120 18/08 A2982 RMK AO2 SLP073 T01830078
KAIA 080053Z AUTO 13015KT 10SM CLR 20/08 A2982 RMK AO2 PK WND 13031/2357 SLP076 T02000078
KAIA 072353Z AUTO 14017G26KT 10SM FEW110 22/08 A2982 RMK AO2 PK WND 13026/2353 PRESFR SLP078 T02220083 10239 20206 58024
KAIA 072253Z AUTO 14018KT 10SM CLR 22/08 A2987 RMK AO2 PK WND 13027/2224 SLP095 T02220078
KAIA 072153Z AUTO 14019G25KT 10SM CLR 24/08 A2987 RMK AO2 PK WND 14031/2129 SLP093 T02390078
KAIA 072053Z AUTO 13015G25KT 10SM CLR 23/07 A2990 RMK AO2 PK WND 15026/2033 SLP103 T02330072 56019
KAIA 071953Z AUTO 13018G23KT 10SM CLR 23/07 A2992 RMK AO2 SLP111 T02280072
KAIA 071853Z AUTO 12012G24KT 10SM CLR 22/07 A2994 RMK AO2 PK WND 10030/1810 SLP116 T02170067
KAIA 071753Z AUTO 10012G23KT 10SM CLR 21/07 A2996 RMK AO2 SLP126 T02060072 10206 20033 58018
KAIA 071653Z AUTO 13011G19KT 10SM CLR 18/07 A2999 RMK AO2 SLP141 T01780072
KAIA 071553Z AUTO 12008KT 10SM CLR 16/07 A3000 RMK AO2 SLP145 T01560067
KAIA 071453Z AUTO 14008KT 10SM CLR 13/06 A3002 RMK AO2 SLP154 T01280061 58004
KAIA 071353Z AUTO 15011KT 10SM CLR 11/06 A3003 RMK AO2 SLP157 T01060061
KAIA 071253Z AUTO 14003KT 10SM CLR 06/05 A3003 RMK AO2 SLP153 T00610050